createdAt,value
2022-12-15T00:02:15.430Z,10.17
2022-12-15T00:05:00.677Z,10.50
2022-12-15T00:07:45.801Z,9.43
2022-12-15T00:10:30.884Z,9.67
2022-12-15T00:13:15.909Z,10.17
2022-12-15T00:16:01.523Z,9.80
2022-12-15T00:18:46.812Z,10.20
2022-12-15T00:21:32.082Z,10.13
2022-12-15T00:24:17.170Z,10.67
2022-12-15T00:27:02.514Z,9.70
2022-12-15T00:29:47.749Z,9.80
2022-12-15T00:32:32.890Z,10.60
2022-12-15T00:35:18.405Z,9.13
2022-12-15T00:38:05.241Z,9.57
2022-12-15T00:40:32.008Z,9.20
2022-12-15T00:42:58.637Z,9.53
2022-12-15T00:45:45.275Z,10.07
2022-12-15T00:48:11.919Z,9.87
2022-12-15T00:50:53.739Z,9.83
2022-12-15T00:53:42.793Z,11.07
2022-12-15T00:56:28.960Z,10.07
2022-12-15T00:59:14.727Z,11.10
2022-12-15T01:01:59.892Z,9.87
2022-12-15T01:04:45.897Z,9.97
2022-12-15T01:07:32.255Z,9.57
2022-12-15T01:10:17.292Z,9.67
2022-12-15T01:13:03.064Z,9.73
2022-12-15T01:15:48.217Z,8.90
2022-12-15T01:18:33.545Z,9.43
2022-12-15T01:21:02.822Z,8.97
2022-12-15T01:23:31.466Z,9.83
2022-12-15T01:25:58.504Z,10.20
2022-12-15T01:28:25.361Z,9.80
2022-12-15T01:30:52.393Z,9.77
2022-12-15T01:33:19.895Z,10.50
2022-12-15T01:36:03.630Z,10.13
2022-12-15T01:38:30.400Z,9.80
2022-12-15T01:41:10.039Z,10.40
2022-12-15T01:43:39.422Z,9.53
2022-12-15T01:46:16.084Z,10.20
2022-12-15T01:48:47.403Z,10.67
2022-12-15T01:51:40.271Z,9.67
2022-12-15T01:54:11.929Z,9.97
2022-12-15T01:56:43.231Z,9.90
2022-12-15T01:59:15.166Z,10.07
2022-12-15T02:01:42.013Z,10.07
2022-12-15T02:04:08.936Z,9.60
2022-12-15T02:06:36.426Z,9.40
2022-12-15T02:09:04.329Z,10.40
2022-12-15T02:12:02.958Z,10.13
2022-12-15T02:14:37.786Z,8.73
2022-12-15T02:17:22.238Z,9.80
2022-12-15T02:19:54.855Z,10.43
2022-12-15T02:22:31.966Z,11.37
2022-12-15T02:25:34.914Z,10.47
2022-12-15T02:28:06.491Z,10.17
2022-12-15T02:31:10.068Z,10.60
2022-12-15T02:33:44.863Z,9.70
2022-12-15T02:36:23.703Z,9.70
2022-12-15T02:38:50.423Z,9.77
2022-12-15T02:41:37.485Z,11.07
2022-12-15T02:44:19.680Z,10.00
2022-12-15T02:47:14.070Z,11.30
2022-12-15T02:49:49.776Z,10.63
2022-12-15T02:52:31.273Z,11.57
2022-12-15T02:55:03.783Z,12.63
2022-12-15T02:57:52.319Z,10.57
2022-12-15T03:00:20.009Z,11.10
2022-12-15T03:02:52.905Z,10.70
2022-12-15T03:05:21.594Z,10.27
2022-12-15T03:07:53.404Z,10.67
2022-12-15T03:10:23.636Z,11.30
2022-12-15T03:12:50.727Z,10.43
2022-12-15T03:15:18.426Z,10.90
2022-12-15T03:17:45.140Z,10.97
2022-12-15T03:20:12.135Z,11.33
2022-12-15T03:22:39.815Z,10.87
2022-12-15T03:25:06.763Z,11.60
2022-12-15T03:27:33.499Z,11.90
2022-12-15T03:30:00.180Z,12.00
2022-12-15T03:32:26.886Z,11.50
2022-12-15T03:34:53.574Z,12.17
2022-12-15T03:37:20.220Z,10.73
2022-12-15T03:39:47.850Z,11.60
2022-12-15T03:42:14.482Z,10.60
2022-12-15T03:44:41.169Z,10.57
2022-12-15T03:47:07.835Z,10.77
2022-12-15T03:49:34.513Z,10.77
2022-12-15T03:52:01.216Z,9.40
2022-12-15T03:54:27.906Z,11.77
2022-12-15T03:56:54.593Z,10.73
2022-12-15T03:59:21.229Z,10.00
2022-12-15T04:01:49.251Z,10.50
2022-12-15T04:04:16.302Z,11.13
2022-12-15T04:06:42.991Z,12.47
2022-12-15T04:09:09.690Z,10.43
2022-12-15T04:11:36.437Z,10.80
2022-12-15T04:14:03.102Z,10.73
2022-12-15T04:16:29.880Z,11.20
2022-12-15T04:19:15.092Z,10.63
2022-12-15T04:21:41.760Z,9.73
2022-12-15T04:24:27.185Z,11.93
2022-12-15T04:27:12.193Z,11.00
2022-12-15T04:29:57.288Z,10.43
2022-12-15T04:32:42.365Z,10.60
2022-12-15T04:35:29.595Z,10.63
2022-12-15T04:38:14.852Z,10.07
2022-12-15T04:41:00.082Z,10.53
2022-12-15T04:43:45.294Z,10.47
2022-12-15T04:46:30.494Z,10.13
2022-12-15T04:49:15.683Z,9.73
2022-12-15T04:52:00.877Z,10.27
2022-12-15T04:54:46.139Z,11.43
2022-12-15T04:57:31.559Z,11.13
2022-12-15T05:00:16.629Z,10.37
2022-12-15T05:03:01.979Z,10.33
2022-12-15T05:05:47.211Z,12.57
2022-12-15T05:08:32.461Z,11.07
2022-12-15T05:11:18.670Z,9.67
2022-12-15T05:14:03.869Z,10.80
2022-12-15T05:16:49.177Z,10.33
2022-12-15T05:19:34.619Z,13.50
2022-12-15T05:22:19.829Z,9.57
2022-12-15T05:25:05.044Z,11.87
2022-12-15T05:27:50.275Z,11.40
2022-12-15T05:30:38.083Z,9.90
2022-12-15T05:33:05.901Z,10.40
2022-12-15T05:35:32.608Z,10.80
2022-12-15T05:38:00.535Z,9.77
2022-12-15T05:40:27.243Z,11.70
2022-12-15T05:42:53.876Z,10.40
2022-12-15T05:45:21.200Z,11.03
2022-12-15T05:47:51.819Z,10.90
2022-12-15T05:50:18.850Z,10.53
2022-12-15T05:52:49.380Z,11.37
2022-12-15T05:55:17.384Z,11.50
2022-12-15T05:57:44.077Z,10.90
2022-12-15T06:00:11.232Z,10.60
2022-12-15T06:02:38.027Z,9.97
2022-12-15T06:05:05.157Z,10.70
2022-12-15T06:07:31.852Z,10.17
2022-12-15T06:09:58.826Z,10.87
2022-12-15T06:15:15.088Z,11.17
2022-12-15T06:17:41.749Z,12.23
2022-12-15T06:20:08.729Z,11.40
2022-12-15T06:22:35.438Z,10.37
2022-12-15T06:25:02.136Z,11.93
2022-12-15T06:27:28.896Z,12.57
2022-12-15T06:29:55.575Z,10.80
2022-12-15T06:32:22.279Z,11.73
2022-12-15T06:34:49.615Z,12.20
2022-12-15T06:37:16.278Z,10.97
2022-12-15T06:39:42.961Z,9.93
2022-12-15T06:42:09.697Z,11.83
2022-12-15T06:44:36.371Z,11.47
2022-12-15T06:47:03.888Z,10.97
2022-12-15T06:49:31.972Z,11.20
2022-12-15T06:51:58.687Z,11.97
2022-12-15T06:54:25.376Z,12.13
2022-12-15T06:56:52.251Z,10.47
2022-12-15T06:59:18.912Z,13.73
2022-12-15T07:01:45.735Z,12.37
2022-12-15T07:04:12.851Z,10.47
2022-12-15T07:06:40.274Z,11.93
2022-12-15T07:09:11.782Z,10.77
2022-12-15T07:11:38.473Z,11.33
2022-12-15T07:14:05.215Z,11.00
2022-12-15T07:16:32.338Z,10.83
2022-12-15T07:18:59.177Z,10.77
2022-12-15T07:21:25.893Z,10.57
2022-12-15T07:23:55.728Z,11.00
2022-12-15T07:26:23.750Z,10.90
2022-12-15T07:28:50.629Z,11.97
2022-12-15T07:31:17.966Z,12.40
2022-12-15T07:33:44.966Z,10.23
2022-12-15T07:36:11.949Z,11.33
2022-12-15T07:38:38.716Z,13.20
2022-12-15T07:41:07.981Z,13.00
2022-12-15T07:43:35.762Z,11.50
2022-12-15T07:46:03.874Z,11.67
2022-12-15T07:48:30.803Z,12.53
2022-12-15T07:51:05.176Z,12.37
2022-12-15T07:53:36.265Z,11.40
2022-12-15T07:56:07.905Z,11.43
2022-12-15T07:58:35.599Z,12.03
2022-12-15T08:01:04.407Z,12.10
2022-12-15T08:03:31.774Z,14.03
2022-12-15T08:06:03.776Z,14.57
2022-12-15T08:08:31.987Z,13.87
2022-12-15T08:10:59.151Z,13.57
2022-12-15T08:14:00.938Z,13.50
2022-12-15T08:16:18.238Z,14.33
2022-12-15T08:18:48.951Z,13.13
2022-12-15T08:21:15.746Z,11.93
2022-12-15T08:23:42.494Z,13.90
2022-12-15T08:26:13.002Z,14.80
2022-12-15T08:28:41.031Z,15.60
2022-12-15T08:31:10.545Z,17.27
2022-12-15T08:33:38.082Z,14.77
2022-12-15T08:36:07.983Z,14.80
2022-12-15T08:38:36.079Z,12.63
2022-12-15T08:41:23.770Z,13.93
2022-12-15T08:43:51.339Z,13.17
2022-12-15T08:46:21.159Z,12.90
2022-12-15T08:48:48.574Z,16.23
2022-12-15T08:51:16.243Z,17.80
2022-12-15T08:53:43.276Z,16.40
2022-12-15T08:56:13.534Z,14.43
2022-12-15T08:58:40.522Z,15.77
2022-12-15T09:01:15.948Z,17.20
2022-12-15T09:03:45.666Z,15.27
2022-12-15T09:06:23.307Z,14.40
2022-12-15T09:08:50.717Z,14.57
2022-12-15T09:11:17.858Z,13.70
2022-12-15T09:13:44.659Z,13.87
2022-12-15T09:16:14.707Z,13.87
2022-12-15T09:18:47.796Z,14.23
2022-12-15T09:21:16.109Z,14.40
2022-12-15T09:23:43.311Z,17.27
2022-12-15T09:26:12.552Z,16.13
2022-12-15T09:28:40.011Z,15.07
2022-12-15T09:31:15.737Z,18.60
2022-12-15T09:33:43.916Z,17.13
2022-12-15T09:36:13.220Z,18.67
2022-12-15T09:38:41.706Z,15.27
2022-12-15T09:41:13.292Z,13.30
2022-12-15T09:44:02.996Z,13.53
2022-12-15T09:47:00.810Z,13.90
2022-12-15T09:49:45.756Z,13.60
2022-12-15T09:52:19.318Z,13.30
2022-12-15T09:54:46.587Z,13.83
2022-12-15T09:57:19.350Z,13.90
2022-12-15T10:00:25.836Z,13.07
2022-12-15T10:03:02.968Z,13.97
2022-12-15T10:06:14.767Z,15.10
2022-12-15T10:08:44.769Z,14.63
2022-12-15T10:11:18.828Z,13.83
2022-12-15T10:14:16.241Z,14.23
2022-12-15T10:17:11.665Z,15.27
2022-12-15T10:20:20.803Z,14.97
2022-12-15T10:22:50.353Z,14.03
2022-12-15T10:25:31.791Z,14.27
2022-12-15T10:28:37.182Z,15.07
2022-12-15T10:31:18.224Z,13.80
2022-12-15T10:33:51.688Z,15.93
2022-12-15T10:36:18.297Z,14.77
2022-12-15T10:38:50.578Z,14.63
2022-12-15T10:41:23.752Z,15.83
2022-12-15T10:43:52.095Z,14.90
2022-12-15T10:46:29.692Z,14.63
2022-12-15T10:48:59.449Z,15.10
2022-12-15T10:51:31.657Z,13.90
2022-12-15T10:54:10.680Z,14.10
2022-12-15T10:57:14.516Z,13.60
2022-12-15T10:59:41.242Z,13.67
2022-12-15T11:02:34.025Z,13.73
2022-12-15T11:05:15.886Z,13.90
2022-12-15T11:07:52.241Z,13.10
2022-12-15T11:10:48.799Z,12.90
2022-12-15T11:13:21.797Z,13.43
2022-12-15T11:15:56.654Z,14.00
2022-12-15T11:18:29.323Z,13.30
2022-12-15T11:21:13.471Z,13.80
2022-12-15T11:24:04.636Z,13.17
2022-12-15T11:26:37.173Z,13.20
2022-12-15T11:29:16.604Z,13.30
2022-12-15T11:31:45.345Z,12.53
2022-12-15T11:34:18.478Z,12.87
2022-12-15T11:37:00.313Z,13.83
2022-12-15T11:40:11.274Z,13.63
2022-12-15T11:42:53.276Z,13.60
2022-12-15T11:45:27.265Z,15.53
2022-12-15T11:48:01.808Z,14.83
2022-12-15T11:50:37.426Z,14.00
2022-12-15T11:53:15.055Z,13.27
2022-12-15T11:55:50.062Z,14.00
2022-12-15T11:58:36.055Z,13.20
2022-12-15T12:01:21.358Z,13.13
2022-12-15T12:04:19.484Z,13.27
2022-12-15T12:06:58.587Z,14.03
2022-12-15T12:09:34.116Z,14.73
2022-12-15T12:12:30.396Z,13.40
2022-12-15T12:15:15.804Z,13.13
2022-12-15T12:17:48.851Z,13.93
2022-12-15T12:20:34.953Z,14.87
2022-12-15T12:23:22.331Z,14.87
2022-12-15T12:26:11.309Z,14.20
2022-12-15T12:29:02.672Z,14.07
2022-12-15T12:31:41.334Z,14.63
2022-12-15T12:34:21.667Z,14.23
2022-12-15T12:36:50.747Z,13.97
2022-12-15T12:39:24.803Z,14.07
2022-12-15T12:42:03.919Z,15.13
2022-12-15T12:44:38.470Z,17.20
2022-12-15T12:47:26.237Z,16.07
2022-12-15T12:49:58.471Z,14.63
2022-12-15T12:52:30.187Z,16.00
2022-12-15T12:55:02.039Z,15.63
2022-12-15T12:57:28.614Z,15.23
2022-12-15T13:00:06.382Z,16.30
2022-12-15T13:02:38.049Z,16.13
2022-12-15T13:05:25.055Z,15.87
2022-12-15T13:08:05.105Z,14.60
2022-12-15T13:10:36.729Z,15.47
2022-12-15T13:13:18.563Z,15.67
2022-12-15T13:15:51.026Z,15.63
2022-12-15T13:18:19.857Z,15.97
2022-12-15T13:20:48.855Z,17.67
2022-12-15T13:23:23.642Z,17.10
2022-12-15T13:25:56.815Z,16.47
2022-12-15T13:28:39.208Z,17.53
2022-12-15T13:31:21.322Z,16.70
2022-12-15T13:33:59.473Z,16.13
2022-12-15T13:36:41.166Z,16.63
2022-12-15T13:39:16.895Z,16.97
2022-12-15T13:42:15.391Z,17.20
2022-12-15T13:44:54.470Z,15.53
2022-12-15T13:47:26.288Z,16.23
2022-12-15T13:50:08.555Z,15.90
2022-12-15T13:55:40.105Z,17.83
2022-12-15T13:58:14.786Z,16.77
2022-12-15T14:00:50.877Z,19.20
2022-12-15T14:03:17.776Z,19.10
2022-12-15T14:05:59.241Z,20.23
2022-12-15T14:08:30.310Z,18.03
2022-12-15T14:11:16.701Z,18.43
2022-12-15T14:13:54.167Z,17.57
2022-12-15T14:16:22.676Z,16.50
2022-12-15T14:19:16.247Z,17.67
2022-12-15T14:22:00.462Z,17.00
2022-12-15T14:24:40.841Z,18.23
2022-12-15T14:27:08.472Z,18.47
2022-12-15T14:29:35.189Z,17.70
2022-12-15T14:32:02.346Z,18.57
2022-12-15T14:34:36.887Z,19.20
2022-12-15T14:37:08.901Z,22.55
2022-12-15T14:39:41.052Z,20.67
2022-12-15T14:42:12.526Z,21.23
2022-12-15T14:44:48.064Z,19.20
2022-12-15T14:47:29.204Z,17.43
2022-12-15T14:49:58.512Z,19.27
2022-12-15T14:52:27.507Z,19.47
2022-12-15T14:54:59.784Z,19.37
2022-12-15T14:57:37.788Z,18.03
2022-12-15T15:00:35.584Z,19.07
2022-12-15T15:03:19.144Z,18.43
2022-12-15T15:05:59.992Z,17.87
2022-12-15T15:08:33.346Z,19.40
2022-12-15T15:11:26.847Z,18.17
2022-12-15T15:14:03.889Z,16.73
2022-12-15T15:16:31.152Z,21.17
2022-12-15T15:19:01.718Z,18.07
2022-12-15T15:21:30.577Z,18.77
2022-12-15T15:24:01.784Z,20.63
2022-12-15T15:26:29.825Z,18.00
2022-12-15T15:28:57.176Z,17.53
2022-12-15T15:31:41.512Z,20.60
2022-12-15T15:34:08.933Z,19.53
2022-12-15T15:36:38.703Z,20.27
2022-12-15T15:39:13.614Z,19.57
2022-12-15T15:41:40.330Z,19.70
2022-12-15T15:44:14.830Z,18.93
2022-12-15T15:46:52.431Z,19.50
2022-12-15T15:49:21.661Z,18.63
2022-12-15T15:51:49.005Z,19.20
2022-12-15T15:54:19.364Z,19.70
2022-12-15T15:56:46.186Z,18.90
2022-12-15T15:59:15.229Z,18.90
2022-12-15T16:01:43.508Z,19.70
2022-12-15T16:04:10.368Z,19.67
2022-12-15T16:06:39.733Z,21.77
2022-12-15T16:09:14.703Z,21.43
2022-12-15T16:11:41.561Z,20.90
2022-12-15T16:14:15.968Z,21.90
2022-12-15T16:16:43.170Z,21.73
2022-12-15T16:19:12.003Z,20.97
2022-12-15T16:21:40.380Z,22.43
2022-12-15T16:24:15.741Z,20.10
2022-12-15T16:26:47.809Z,21.30
2022-12-15T16:29:16.622Z,19.63
2022-12-15T16:31:46.722Z,18.90
2022-12-15T16:34:16.565Z,19.90
2022-12-15T16:36:43.951Z,19.50
2022-12-15T16:39:33.105Z,18.53
2022-12-15T16:42:00.309Z,28.33
2022-12-15T16:44:29.267Z,20.90
2022-12-15T16:46:57.131Z,19.20
2022-12-15T16:49:24.096Z,20.10
2022-12-15T16:51:54.865Z,19.50
2022-12-15T16:54:28.401Z,19.47
2022-12-15T16:56:57.137Z,19.10
2022-12-15T16:59:34.863Z,20.37
2022-12-15T17:02:17.169Z,20.17
2022-12-15T17:04:44.073Z,20.27
2022-12-15T17:07:19.802Z,21.93
2022-12-15T17:09:47.520Z,21.03
2022-12-15T17:12:17.542Z,21.23
2022-12-15T17:14:45.054Z,21.10
2022-12-15T17:17:16.471Z,22.03
2022-12-15T17:19:57.810Z,21.50
2022-12-15T17:22:26.874Z,20.43
2022-12-15T17:24:53.580Z,20.47
2022-12-15T17:27:28.084Z,21.70
2022-12-15T17:30:00.559Z,20.90
2022-12-15T17:32:27.285Z,20.27
2022-12-15T17:34:53.969Z,20.93
2022-12-15T17:37:20.848Z,18.07
2022-12-15T17:39:51.402Z,20.00
2022-12-15T17:42:22.103Z,22.77
2022-12-15T17:44:49.420Z,24.07
2022-12-15T17:47:20.038Z,21.73
2022-12-15T17:49:47.385Z,23.10
2022-12-15T17:52:20.319Z,21.63
2022-12-15T17:54:47.145Z,25.25
2022-12-15T17:57:13.834Z,24.77
2022-12-15T17:59:40.738Z,23.63
2022-12-15T18:02:12.067Z,23.37
2022-12-15T18:04:39.154Z,22.97
2022-12-15T18:07:06.467Z,23.20
2022-12-15T18:09:33.156Z,23.53
2022-12-15T18:11:59.873Z,21.80
2022-12-15T18:14:27.383Z,21.50
2022-12-15T18:16:54.019Z,21.47
2022-12-15T18:19:20.695Z,23.50
2022-12-15T18:21:47.469Z,22.57
2022-12-15T18:24:17.104Z,21.37
2022-12-15T18:26:44.290Z,22.10
2022-12-15T18:29:17.948Z,21.73
2022-12-15T18:31:47.075Z,22.83
2022-12-15T18:34:17.528Z,21.60
2022-12-15T18:36:44.949Z,22.83
2022-12-15T18:39:18.847Z,22.50
2022-12-15T18:41:46.156Z,22.10
2022-12-15T18:44:22.899Z,23.27
2022-12-15T18:46:49.743Z,23.93
2022-12-15T18:49:17.792Z,22.83
2022-12-15T18:51:46.336Z,21.03
2022-12-15T18:54:24.078Z,22.63
2022-12-15T18:56:51.683Z,22.63
2022-12-15T18:59:19.633Z,22.13
2022-12-15T19:01:48.125Z,22.67
2022-12-15T19:04:15.148Z,24.13
2022-12-15T19:06:42.434Z,23.10
2022-12-15T19:09:17.322Z,23.93
2022-12-15T19:12:15.803Z,23.13
2022-12-15T19:14:42.899Z,23.33
2022-12-15T19:17:42.173Z,25.10
2022-12-15T19:20:36.526Z,28.13
2022-12-15T19:23:04.277Z,24.03
2022-12-15T19:25:32.191Z,25.07
2022-12-15T19:27:59.937Z,23.93
2022-12-15T19:30:29.664Z,24.20
2022-12-15T19:32:57.470Z,24.20
2022-12-15T19:35:25.198Z,26.80
2022-12-15T19:37:55.255Z,26.70
2022-12-15T19:40:27.539Z,25.83
2022-12-15T19:42:55.332Z,24.33
2022-12-15T19:45:28.231Z,25.30
2022-12-15T19:47:55.532Z,23.97
2022-12-15T19:50:25.366Z,24.57
2022-12-15T19:53:01.229Z,22.37
2022-12-15T19:55:33.653Z,25.80
2022-12-15T19:58:06.432Z,24.17
2022-12-15T20:00:33.096Z,25.67
2022-12-15T20:03:02.040Z,24.97
2022-12-15T20:05:29.351Z,25.07
2022-12-15T20:07:56.180Z,24.10
2022-12-15T20:10:31.694Z,22.87
2022-12-15T20:13:00.569Z,28.10
2022-12-15T20:15:27.801Z,23.07
2022-12-15T20:17:58.120Z,24.17
2022-12-15T20:20:27.958Z,23.60
2022-12-15T20:22:58.961Z,23.87
2022-12-15T20:25:29.517Z,24.27
2022-12-15T20:27:57.348Z,23.83
2022-12-15T20:30:35.494Z,23.50
2022-12-15T20:33:03.965Z,24.90
2022-12-15T20:35:33.288Z,24.73
2022-12-15T20:38:02.596Z,25.07
2022-12-15T20:40:30.710Z,26.10
2022-12-15T20:42:57.624Z,25.30
2022-12-15T20:45:26.674Z,26.20
2022-12-15T20:47:55.962Z,25.63
2022-12-15T20:50:25.390Z,29.03
2022-12-15T20:52:52.714Z,37.53
2022-12-15T20:55:21.720Z,34.80
2022-12-15T20:57:49.067Z,29.90
2022-12-15T21:00:18.054Z,27.97
2022-12-15T21:02:46.354Z,27.70
2022-12-15T21:05:22.567Z,27.73
2022-12-15T21:07:49.718Z,27.40
2022-12-15T21:10:18.221Z,26.13
2022-12-15T21:12:46.721Z,27.13
2022-12-15T21:15:31.372Z,26.33
2022-12-15T21:18:25.924Z,27.87
2022-12-15T21:20:49.720Z,28.07
2022-12-15T21:23:27.409Z,28.37
2022-12-15T21:25:57.789Z,28.20
2022-12-15T21:28:25.118Z,28.27
2022-12-15T21:30:52.312Z,27.37
2022-12-15T21:33:19.092Z,28.33
2022-12-15T21:35:47.558Z,37.97
2022-12-15T21:38:30.052Z,30.93
2022-12-15T21:43:43.643Z,28.17
2022-12-15T21:46:27.579Z,27.60
2022-12-15T21:49:14.307Z,28.17
2022-12-15T21:51:55.408Z,28.37
2022-12-15T21:54:31.014Z,27.07
2022-12-15T21:56:59.028Z,28.27
2022-12-15T21:59:29.266Z,27.90
2022-12-15T22:01:56.437Z,27.33
2022-12-15T22:04:28.800Z,29.43
2022-12-15T22:06:55.576Z,29.10
2022-12-15T22:09:22.313Z,28.17
2022-12-15T22:11:51.427Z,29.13
2022-12-15T22:14:28.478Z,28.80
2022-12-15T22:16:55.817Z,29.23
2022-12-15T22:19:23.442Z,28.13
2022-12-15T22:21:50.673Z,28.27
2022-12-15T22:24:20.924Z,29.47
2022-12-15T22:26:47.885Z,30.57
2022-12-15T22:29:21.168Z,30.43
2022-12-15T22:31:49.624Z,31.10
2022-12-15T22:34:19.097Z,30.53
2022-12-15T22:36:45.883Z,29.97
2022-12-15T22:39:14.729Z,30.27
2022-12-15T22:41:43.816Z,28.97
2022-12-15T22:44:26.077Z,28.83
2022-12-15T22:46:55.421Z,27.97
2022-12-15T22:49:27.591Z,26.33
2022-12-15T22:51:55.088Z,27.90
2022-12-15T22:54:26.883Z,29.67
2022-12-15T22:57:05.408Z,29.30
2022-12-15T22:59:41.315Z,25.07
2022-12-15T23:02:09.263Z,28.47
2022-12-15T23:04:36.504Z,28.77
2022-12-15T23:07:07.536Z,28.03
2022-12-15T23:09:34.189Z,27.47
2022-12-15T23:12:00.945Z,27.77
2022-12-15T23:14:46.627Z,26.00
2022-12-15T23:17:14.227Z,27.60
2022-12-15T23:19:47.460Z,25.17
2022-12-15T23:22:14.182Z,26.83
2022-12-15T23:24:40.964Z,24.20
2022-12-15T23:27:11.725Z,23.93
2022-12-15T23:29:38.491Z,25.43
2022-12-15T23:32:05.339Z,26.50
2022-12-15T23:34:32.051Z,23.70
2022-12-15T23:36:58.661Z,25.97
2022-12-15T23:39:25.764Z,24.33
2022-12-15T23:41:52.408Z,24.23
2022-12-15T23:44:19.021Z,25.23
2022-12-15T23:46:46.842Z,27.30
2022-12-15T23:49:13.776Z,25.93
2022-12-15T23:51:40.442Z,25.47
2022-12-15T23:54:08.528Z,24.90
2022-12-15T23:56:35.551Z,26.10
2022-12-15T23:59:02.315Z,26.73
